createdAt,value
2023-03-06T00:00:37.617Z,100094.00
2023-03-06T00:03:04.925Z,100099.00
2023-03-06T00:05:31.862Z,100099.00
2023-03-06T00:07:58.705Z,100098.00
2023-03-06T00:10:28.492Z,100084.00
2023-03-06T00:12:57.344Z,100085.00
2023-03-06T00:15:26.041Z,100089.00
2023-03-06T00:17:58.475Z,100077.00
2023-03-06T00:20:26.800Z,100081.00
2023-03-06T00:23:04.612Z,100081.00
2023-03-06T00:25:39.012Z,100078.00
2023-03-06T00:28:09.481Z,100082.00
2023-03-06T00:30:40.604Z,100066.00
2023-03-06T00:33:12.291Z,100055.00
2023-03-06T00:35:40.989Z,100060.00
2023-03-06T00:38:08.009Z,100061.00
2023-03-06T00:40:34.831Z,100057.00
2023-03-06T00:43:01.588Z,100055.00
2023-03-06T00:45:28.229Z,100044.00
2023-03-06T00:47:57.084Z,100036.00
2023-03-06T00:50:27.027Z,100030.00
2023-03-06T00:53:03.541Z,100019.00
2023-03-06T00:55:31.668Z,100016.00
2023-03-06T00:57:58.270Z,100012.00
2023-03-06T01:00:26.186Z,100012.00
2023-03-06T01:02:53.895Z,100002.00
2023-03-06T01:05:23.554Z,100004.00
2023-03-06T01:07:50.480Z,99993.00
2023-03-06T01:10:22.557Z,99981.00
2023-03-06T01:12:51.646Z,99978.00
2023-03-06T01:15:18.678Z,99969.00
2023-03-06T01:17:47.977Z,99971.00
2023-03-06T01:20:17.511Z,99973.00
2023-03-06T01:22:44.732Z,99958.00
2023-03-06T01:25:14.459Z,99964.00
2023-03-06T01:27:41.085Z,99955.00
2023-03-06T01:30:11.562Z,99944.00
2023-03-06T01:32:38.423Z,99939.00
2023-03-06T01:35:07.776Z,99947.00
2023-03-06T01:37:36.958Z,99939.00
2023-03-06T01:40:06.794Z,99929.00
2023-03-06T01:42:33.773Z,99914.00
2023-03-06T01:45:03.768Z,99922.00
2023-03-06T01:47:30.812Z,99926.00
2023-03-06T01:50:01.944Z,99921.00
2023-03-06T01:52:36.367Z,99925.00
2023-03-06T01:55:09.293Z,99902.00
2023-03-06T01:57:44.118Z,99915.00
2023-03-06T02:00:17.293Z,99918.00
2023-03-06T02:02:59.963Z,99906.00
2023-03-06T02:05:27.018Z,99899.00
2023-03-06T02:08:16.418Z,99898.00
2023-03-06T02:10:52.776Z,99897.00
2023-03-06T02:13:23.667Z,99882.00
2023-03-06T02:15:52.578Z,99891.00
2023-03-06T02:18:23.256Z,99890.00
2023-03-06T02:20:54.768Z,99893.00
2023-03-06T02:23:31.994Z,99897.00
2023-03-06T02:26:02.626Z,99883.00
2023-03-06T02:28:31.231Z,99887.00
2023-03-06T02:31:01.902Z,99884.00
2023-03-06T02:33:30.300Z,99877.00
2023-03-06T02:36:05.687Z,99875.00
2023-03-06T02:38:40.451Z,99865.00
2023-03-06T02:41:11.212Z,99873.00
2023-03-06T02:43:40.097Z,99867.00
2023-03-06T02:46:07.816Z,99866.00
2023-03-06T02:48:34.657Z,99867.00
2023-03-06T02:51:01.359Z,99864.00
2023-03-06T02:53:29.030Z,99854.00
2023-03-06T02:55:55.775Z,99862.00
2023-03-06T02:58:22.377Z,99859.00
2023-03-06T03:00:50.138Z,99855.00
2023-03-06T03:03:17.191Z,99843.00
2023-03-06T03:05:46.555Z,99843.00
2023-03-06T03:08:13.319Z,99848.00
2023-03-06T03:10:39.807Z,99840.00
2023-03-06T03:13:08.307Z,99841.00
2023-03-06T03:15:36.751Z,99842.00
2023-03-06T03:18:03.354Z,99838.00
2023-03-06T03:20:32.290Z,99835.00
2023-03-06T03:22:59.097Z,99842.00
2023-03-06T03:25:26.466Z,99835.00
2023-03-06T03:27:53.219Z,99839.00
2023-03-06T03:30:22.919Z,99850.00
2023-03-06T03:32:52.320Z,99848.00
2023-03-06T03:35:20.803Z,99854.00
2023-03-06T03:37:47.444Z,99859.00
2023-03-06T03:40:14.061Z,99866.00
2023-03-06T03:42:42.950Z,99862.00
2023-03-06T03:45:09.895Z,99860.00
2023-03-06T03:47:37.164Z,99872.00
2023-03-06T03:50:06.484Z,99869.00
2023-03-06T03:52:33.266Z,99874.00
2023-03-06T03:54:59.956Z,99881.00
2023-03-06T03:57:26.878Z,99875.00
2023-03-06T03:59:53.534Z,99881.00
2023-03-06T04:02:21.954Z,99869.00
2023-03-06T04:04:49.003Z,99878.00
2023-03-06T04:07:15.579Z,99883.00
2023-03-06T04:09:42.259Z,99882.00
2023-03-06T04:12:09.094Z,99876.00
2023-03-06T04:14:35.808Z,99869.00
2023-03-06T04:17:02.983Z,99873.00
2023-03-06T04:19:32.590Z,99870.00
2023-03-06T04:22:02.576Z,99864.00
2023-03-06T04:24:29.555Z,99877.00
2023-03-06T04:26:59.461Z,99877.00
2023-03-06T04:29:26.512Z,99869.00
2023-03-06T04:31:53.240Z,99869.00
2023-03-06T04:34:20.195Z,99876.00
2023-03-06T04:36:49.587Z,99874.00
2023-03-06T04:39:16.639Z,99878.00
2023-03-06T04:41:45.646Z,99887.00
2023-03-06T04:44:15.576Z,99884.00
2023-03-06T04:46:42.528Z,99888.00
2023-03-06T04:49:10.668Z,99883.00
2023-03-06T04:51:41.247Z,99896.00
2023-03-06T04:54:10.436Z,99893.00
2023-03-06T04:56:37.150Z,99889.00
2023-03-06T04:59:04.958Z,99894.00
2023-03-06T05:01:33.606Z,99893.00
2023-03-06T05:04:00.462Z,99892.00
2023-03-06T05:06:27.293Z,99895.00
2023-03-06T05:08:54.022Z,99890.00
2023-03-06T05:11:30.174Z,99890.00
2023-03-06T05:13:59.933Z,99885.00
2023-03-06T05:16:29.211Z,99888.00
2023-03-06T05:18:56.364Z,99892.00
2023-03-06T05:21:28.508Z,99895.00
2023-03-06T05:23:55.390Z,99896.00
2023-03-06T05:26:24.797Z,99895.00
2023-03-06T05:28:56.330Z,99908.00
2023-03-06T05:31:30.561Z,99902.00
2023-03-06T05:33:59.010Z,99911.00
2023-03-06T05:36:28.479Z,99906.00
2023-03-06T05:38:58.549Z,99908.00
2023-03-06T05:41:32.408Z,99909.00
2023-03-06T05:44:08.833Z,99906.00
2023-03-06T05:46:39.570Z,99898.00
2023-03-06T05:49:06.364Z,99900.00
2023-03-06T05:51:33.757Z,99901.00
2023-03-06T05:54:03.945Z,99901.00
2023-03-06T05:56:34.364Z,99897.00
2023-03-06T05:59:05.038Z,99899.00
2023-03-06T06:01:34.387Z,99903.00
2023-03-06T06:04:03.957Z,99907.00
2023-03-06T06:06:32.140Z,99899.00
2023-03-06T06:09:08.404Z,99902.00
2023-03-06T06:11:35.660Z,99894.00
2023-03-06T06:14:02.459Z,99905.00
2023-03-06T06:16:29.306Z,99907.00
2023-03-06T06:19:07.112Z,99906.00
2023-03-06T06:21:34.062Z,99901.00
2023-03-06T06:24:01.500Z,99909.00
2023-03-06T06:26:39.863Z,99912.00
2023-03-06T06:29:06.704Z,99914.00
2023-03-06T06:31:33.657Z,99911.00
2023-03-06T06:34:00.834Z,99910.00
2023-03-06T06:36:38.508Z,99906.00
2023-03-06T06:39:15.320Z,99912.00
2023-03-06T06:42:02.265Z,99919.00
2023-03-06T06:44:32.813Z,99925.00
2023-03-06T06:47:26.489Z,99923.00
2023-03-06T06:49:59.572Z,99918.00
2023-03-06T06:52:33.399Z,99920.00
2023-03-06T06:55:03.381Z,99912.00
2023-03-06T06:57:30.476Z,99911.00
2023-03-06T06:59:57.866Z,99913.00
2023-03-06T07:02:25.570Z,99913.00
2023-03-06T07:05:03.513Z,99916.00
2023-03-06T07:07:36.523Z,99911.00
2023-03-06T07:10:15.953Z,99924.00
2023-03-06T07:12:43.127Z,99915.00
2023-03-06T07:15:14.162Z,99919.00
2023-03-06T07:17:41.264Z,99918.00
2023-03-06T07:20:15.300Z,99912.00
2023-03-06T07:22:50.720Z,99909.00
2023-03-06T07:25:19.021Z,99910.00
2023-03-06T07:27:52.752Z,99914.00
2023-03-06T07:30:21.145Z,99914.00
2023-03-06T07:33:15.704Z,99913.00
2023-03-06T07:35:43.792Z,99910.00
2023-03-06T07:38:18.428Z,99912.00
2023-03-06T07:40:47.318Z,99911.00
2023-03-06T07:43:19.418Z,99913.00
2023-03-06T07:45:51.428Z,99909.00
2023-03-06T07:48:29.432Z,99910.00
2023-03-06T07:51:08.495Z,99908.00
2023-03-06T07:53:40.632Z,99899.00
2023-03-06T07:56:18.805Z,99903.00
2023-03-06T07:58:52.931Z,99899.00
2023-03-06T08:01:23.654Z,99900.00
2023-03-06T08:04:05.155Z,99901.00
2023-03-06T08:06:35.851Z,99910.00
2023-03-06T08:09:03.301Z,99910.00
2023-03-06T08:11:39.832Z,99905.00
2023-03-06T08:14:11.001Z,99910.00
2023-03-06T08:16:41.061Z,99905.00
2023-03-06T08:19:08.154Z,99905.00
2023-03-06T08:21:37.652Z,99904.00
2023-03-06T08:24:07.633Z,99913.00
2023-03-06T08:26:36.064Z,99915.00
2023-03-06T08:29:03.248Z,99907.00
2023-03-06T08:31:36.219Z,99929.00
2023-03-06T08:34:07.180Z,99915.00
2023-03-06T08:36:39.149Z,99923.00
2023-03-06T08:39:06.503Z,99916.00
2023-03-06T08:41:34.345Z,99926.00
2023-03-06T08:44:01.254Z,99935.00
2023-03-06T08:46:30.233Z,99931.00
2023-03-06T08:49:16.204Z,99925.00
2023-03-06T08:51:45.412Z,99931.00
2023-03-06T08:54:15.549Z,99934.00
2023-03-06T08:56:42.122Z,99934.00
2023-03-06T08:59:11.951Z,99936.00
2023-03-06T09:01:40.264Z,99935.00
2023-03-06T09:04:10.724Z,99935.00
2023-03-06T09:06:40.182Z,99929.00
2023-03-06T09:09:07.451Z,99933.00
2023-03-06T09:11:34.602Z,99938.00
2023-03-06T09:14:01.648Z,99939.00
2023-03-06T09:16:28.418Z,99941.00
2023-03-06T09:19:00.750Z,99940.00
2023-03-06T09:21:30.574Z,99934.00
2023-03-06T09:23:57.135Z,99929.00
2023-03-06T09:26:32.775Z,99932.00
2023-03-06T09:29:06.448Z,99931.00
2023-03-06T09:31:33.132Z,99936.00
2023-03-06T09:34:07.007Z,99932.00
2023-03-06T09:36:45.686Z,99936.00
2023-03-06T09:39:22.714Z,99940.00
2023-03-06T09:41:50.721Z,99943.00
2023-03-06T09:44:21.718Z,99947.00
2023-03-06T09:47:31.663Z,99934.00
2023-03-06T09:50:14.480Z,99938.00
2023-03-06T09:53:05.046Z,99940.00
2023-03-06T09:55:42.376Z,99934.00
2023-03-06T09:58:20.294Z,99946.00
2023-03-06T10:01:09.079Z,99953.00
2023-03-06T10:04:28.766Z,99952.00
2023-03-06T10:07:10.616Z,99942.00
2023-03-06T10:09:45.765Z,99942.00
2023-03-06T10:12:25.911Z,99951.00
2023-03-06T10:15:07.490Z,99952.00
2023-03-06T10:17:37.710Z,99942.00
2023-03-06T10:20:23.806Z,99953.00
2023-03-06T10:23:20.899Z,99940.00
2023-03-06T10:26:25.408Z,99945.00
2023-03-06T10:29:11.684Z,99946.00
2023-03-06T10:31:44.615Z,99946.00
2023-03-06T10:34:30.747Z,99942.00
2023-03-06T10:37:02.430Z,99938.00
2023-03-06T10:39:29.502Z,99946.00
2023-03-06T10:41:55.982Z,99943.00
2023-03-06T10:44:24.215Z,99946.00
2023-03-06T10:46:52.810Z,99937.00
2023-03-06T10:49:35.704Z,99945.00
2023-03-06T10:52:09.716Z,99945.00
2023-03-06T10:54:39.443Z,99933.00
2023-03-06T10:57:35.421Z,99942.00
2023-03-06T11:00:06.220Z,99950.00
2023-03-06T11:02:39.862Z,99941.00
2023-03-06T11:05:19.362Z,99938.00
2023-03-06T11:07:59.667Z,99947.00
2023-03-06T11:10:28.920Z,99940.00
2023-03-06T11:13:03.144Z,99941.00
2023-03-06T11:15:30.135Z,99939.00
2023-03-06T11:18:04.871Z,99939.00
2023-03-06T11:20:50.054Z,99930.00
2023-03-06T11:23:26.498Z,99935.00
2023-03-06T11:26:09.860Z,99930.00
2023-03-06T11:29:08.964Z,99928.00
2023-03-06T11:31:41.115Z,99919.00
2023-03-06T11:34:56.763Z,99914.00
2023-03-06T11:37:32.707Z,99917.00
2023-03-06T11:40:11.794Z,99920.00
2023-03-06T11:42:50.074Z,99924.00
2023-03-06T11:45:21.947Z,99920.00
2023-03-06T11:48:20.845Z,99915.00
2023-03-06T11:50:59.477Z,99916.00
2023-03-06T11:53:39.588Z,99920.00
2023-03-06T11:56:18.411Z,99922.00
2023-03-06T11:59:12.767Z,99919.00
2023-03-06T12:02:03.730Z,99920.00
2023-03-06T12:04:53.666Z,99927.00
2023-03-06T12:07:35.627Z,99913.00
2023-03-06T12:10:34.551Z,99910.00
2023-03-06T12:13:31.032Z,99906.00
2023-03-06T12:16:31.879Z,99907.00
2023-03-06T12:19:25.672Z,99911.00
2023-03-06T12:22:18.823Z,99903.00
2023-03-06T12:25:25.939Z,99902.00
2023-03-06T12:28:27.961Z,99896.00
2023-03-06T12:31:38.817Z,99897.00
2023-03-06T12:34:41.103Z,99898.00
2023-03-06T12:37:20.993Z,99892.00
2023-03-06T12:40:12.205Z,99903.00
2023-03-06T12:46:35.262Z,99898.00
2023-03-06T12:53:02.188Z,99891.00
2023-03-06T12:56:04.919Z,99900.00
2023-03-06T12:58:31.502Z,99894.00
2023-03-06T13:01:04.756Z,99897.00
2023-03-06T13:04:04.722Z,99904.00
2023-03-06T13:06:49.768Z,99889.00
2023-03-06T13:09:47.189Z,99878.00
2023-03-06T13:12:25.851Z,99879.00
2023-03-06T13:14:58.310Z,99884.00
2023-03-06T13:17:26.883Z,99879.00
2023-03-06T13:20:15.101Z,99881.00
2023-03-06T13:22:43.847Z,99870.00
2023-03-06T13:25:19.972Z,99871.00
2023-03-06T13:27:47.045Z,99853.00
2023-03-06T13:30:34.895Z,99851.00
2023-03-06T13:33:02.132Z,99849.00
2023-03-06T13:35:34.654Z,99871.00
2023-03-06T13:38:02.282Z,99852.00
2023-03-06T13:40:34.770Z,99842.00
2023-03-06T13:43:18.391Z,99844.00
2023-03-06T13:45:48.602Z,99849.00
2023-03-06T13:48:43.629Z,99853.00
2023-03-06T13:51:24.728Z,99848.00
2023-03-06T13:53:58.102Z,99850.00
2023-03-06T13:56:56.310Z,99860.00
2023-03-06T13:59:44.174Z,99852.00
2023-03-06T14:02:56.150Z,99848.00
2023-03-06T14:05:23.816Z,99851.00
2023-03-06T14:08:14.596Z,99846.00
2023-03-06T14:10:57.635Z,99850.00
2023-03-06T14:13:35.078Z,99849.00
2023-03-06T14:16:19.859Z,99851.00
2023-03-06T14:18:48.754Z,99845.00
2023-03-06T14:21:21.776Z,99859.00
2023-03-06T14:24:00.319Z,99871.00
2023-03-06T14:26:31.110Z,99864.00
2023-03-06T14:28:59.286Z,99853.00
2023-03-06T14:31:33.461Z,99864.00
2023-03-06T14:34:02.658Z,99854.00
2023-03-06T14:36:48.042Z,99858.00
2023-03-06T14:39:18.108Z,99844.00
2023-03-06T14:41:44.757Z,99847.00
2023-03-06T14:44:18.010Z,99847.00
2023-03-06T14:46:56.661Z,99843.00
2023-03-06T14:49:27.346Z,99847.00
2023-03-06T14:52:04.956Z,99846.00
2023-03-06T14:54:37.103Z,99838.00
2023-03-06T14:57:17.460Z,99843.00
2023-03-06T14:59:55.186Z,99836.00
2023-03-06T15:02:24.908Z,99832.00
2023-03-06T15:04:59.512Z,99837.00
2023-03-06T15:07:32.361Z,99843.00
2023-03-06T15:10:02.263Z,99847.00
2023-03-06T15:12:34.006Z,99844.00
2023-03-06T15:15:04.697Z,99845.00
2023-03-06T15:17:39.819Z,99844.00
2023-03-06T15:20:29.424Z,99842.00
2023-03-06T15:22:56.193Z,99844.00
2023-03-06T15:25:31.807Z,99872.00
2023-03-06T15:28:03.521Z,99872.00
2023-03-06T15:30:35.167Z,99864.00
2023-03-06T15:33:24.840Z,99856.00
2023-03-06T15:36:03.282Z,99860.00
2023-03-06T15:38:42.051Z,99863.00
2023-03-06T15:41:25.133Z,99852.00
2023-03-06T15:43:52.009Z,99859.00
2023-03-06T15:46:18.922Z,99861.00
2023-03-06T15:49:17.208Z,99858.00
2023-03-06T15:51:45.788Z,99851.00
2023-03-06T15:54:13.017Z,99839.00
2023-03-06T15:56:44.887Z,99849.00
2023-03-06T15:59:24.670Z,99858.00
2023-03-06T16:01:52.671Z,99856.00
2023-03-06T16:04:20.971Z,99851.00
2023-03-06T16:06:47.758Z,99852.00
2023-03-06T16:09:14.844Z,99847.00
2023-03-06T16:11:44.933Z,99856.00
2023-03-06T16:14:23.871Z,99846.00
2023-03-06T16:16:54.874Z,99845.00
2023-03-06T16:19:27.436Z,99854.00
2023-03-06T16:21:56.111Z,99845.00
2023-03-06T16:24:26.578Z,99851.00
2023-03-06T16:26:57.461Z,99846.00
2023-03-06T16:29:28.454Z,99852.00
2023-03-06T16:31:59.135Z,99854.00
2023-03-06T16:34:26.194Z,99842.00
2023-03-06T16:36:53.065Z,99855.00
2023-03-06T16:39:22.732Z,99849.00
2023-03-06T16:41:50.235Z,99854.00
2023-03-06T16:44:21.314Z,99857.00
2023-03-06T16:46:50.059Z,99851.00
2023-03-06T16:49:25.442Z,99855.00
2023-03-06T16:51:56.500Z,99863.00
2023-03-06T16:54:26.347Z,99865.00
2023-03-06T16:56:53.393Z,99859.00
2023-03-06T16:59:20.287Z,99862.00
2023-03-06T17:01:49.376Z,99861.00
2023-03-06T17:04:17.611Z,99873.00
2023-03-06T17:06:44.728Z,99874.00
2023-03-06T17:09:11.387Z,99866.00
2023-03-06T17:11:43.085Z,99871.00
2023-03-06T17:14:09.800Z,99865.00
2023-03-06T17:16:40.400Z,99876.00
2023-03-06T17:19:07.996Z,99876.00
2023-03-06T17:21:35.772Z,99870.00
2023-03-06T17:24:03.766Z,99873.00
2023-03-06T17:26:31.175Z,99877.00
2023-03-06T17:29:01.024Z,99867.00
2023-03-06T17:31:28.273Z,99881.00
2023-03-06T17:34:02.011Z,99880.00
2023-03-06T17:36:29.373Z,99887.00
2023-03-06T17:39:00.462Z,99886.00
2023-03-06T17:41:27.470Z,99888.00
2023-03-06T17:43:58.326Z,99892.00
2023-03-06T17:46:25.665Z,99896.00
2023-03-06T17:48:52.321Z,99896.00
2023-03-06T17:51:18.985Z,99896.00
2023-03-06T17:53:45.788Z,99894.00
2023-03-06T17:56:14.210Z,99890.00
2023-03-06T17:58:40.938Z,99898.00
2023-03-06T18:01:12.840Z,99893.00
2023-03-06T18:03:40.093Z,99893.00
2023-03-06T18:06:09.588Z,99898.00
2023-03-06T18:08:37.509Z,99902.00
2023-03-06T18:11:06.847Z,99892.00
2023-03-06T18:13:38.842Z,99894.00
2023-03-06T18:16:06.940Z,99898.00
2023-03-06T18:18:33.724Z,99892.00
2023-03-06T18:21:05.314Z,99895.00
2023-03-06T18:23:32.026Z,99894.00
2023-03-06T18:26:19.092Z,99884.00
2023-03-06T18:28:47.801Z,99893.00
2023-03-06T18:31:22.699Z,99886.00
2023-03-06T18:33:49.883Z,99883.00
2023-03-06T18:36:17.631Z,99888.00
2023-03-06T18:38:45.721Z,99894.00
2023-03-06T18:41:13.296Z,99897.00
2023-03-06T18:43:39.761Z,99891.00
2023-03-06T18:46:06.607Z,99892.00
2023-03-06T18:48:35.458Z,99898.00
2023-03-06T18:51:07.635Z,99890.00
2023-03-06T18:53:34.660Z,99902.00
2023-03-06T18:56:02.420Z,99890.00
2023-03-06T18:58:29.522Z,99889.00
2023-03-06T19:00:58.337Z,99898.00
2023-03-06T19:03:25.833Z,99895.00
2023-03-06T19:05:52.550Z,99897.00
2023-03-06T19:08:19.029Z,99891.00
2023-03-06T19:10:47.475Z,99892.00
2023-03-06T19:13:14.876Z,99886.00
2023-03-06T19:15:45.874Z,99883.00
2023-03-06T19:18:17.872Z,99881.00
2023-03-06T19:20:44.986Z,99887.00
2023-03-06T19:23:13.123Z,99880.00
2023-03-06T19:25:39.861Z,99885.00
2023-03-06T19:28:08.911Z,99885.00
2023-03-06T19:30:35.664Z,99882.00
2023-03-06T19:33:03.700Z,99887.00
2023-03-06T19:35:30.435Z,99868.00
2023-03-06T19:38:18.962Z,99886.00
2023-03-06T19:40:50.172Z,99874.00
2023-03-06T19:43:16.951Z,99872.00
2023-03-06T19:45:45.516Z,99883.00
2023-03-06T19:48:12.756Z,99869.00
2023-03-06T19:50:41.838Z,99868.00
2023-03-06T19:53:08.545Z,99881.00
2023-03-06T19:55:35.144Z,99874.00
2023-03-06T19:58:02.242Z,99869.00
2023-03-06T20:00:29.594Z,99875.00
2023-03-06T20:02:57.038Z,99863.00
2023-03-06T20:05:25.854Z,99869.00
2023-03-06T20:07:52.547Z,99871.00
2023-03-06T20:10:19.499Z,99868.00
2023-03-06T20:12:46.261Z,99869.00
2023-03-06T20:15:13.282Z,99875.00
2023-03-06T20:17:42.370Z,99871.00
2023-03-06T20:20:10.286Z,99860.00
2023-03-06T20:22:37.286Z,99859.00
2023-03-06T20:25:05.354Z,99866.00
2023-03-06T20:27:37.109Z,99862.00
2023-03-06T20:30:07.003Z,99857.00
2023-03-06T20:32:34.869Z,99860.00
2023-03-06T20:35:01.584Z,99856.00
2023-03-06T20:37:28.393Z,99857.00
2023-03-06T20:39:55.113Z,99854.00
2023-03-06T20:42:22.803Z,99848.00
2023-03-06T20:44:49.540Z,99842.00
2023-03-06T20:47:16.259Z,99838.00
2023-03-06T20:49:43.206Z,99841.00
2023-03-06T20:52:09.961Z,99831.00
2023-03-06T20:54:39.995Z,99831.00
2023-03-06T20:57:08.774Z,99825.00
2023-03-06T20:59:41.756Z,99826.00
2023-03-06T21:02:31.870Z,99824.00
2023-03-06T21:05:26.066Z,99827.00
2023-03-06T21:07:56.179Z,99826.00
2023-03-06T21:10:31.239Z,99820.00
2023-03-06T21:13:03.551Z,99823.00
2023-03-06T21:15:33.378Z,99823.00
2023-03-06T21:18:04.213Z,99809.00
2023-03-06T21:20:30.847Z,99811.00
2023-03-06T21:22:57.639Z,99826.00
2023-03-06T21:25:24.233Z,99806.00
2023-03-06T21:27:50.916Z,99800.00
2023-03-06T21:30:17.695Z,99800.00
2023-03-06T21:32:44.251Z,99808.00
2023-03-06T21:35:14.120Z,99802.00
2023-03-06T21:37:43.107Z,99803.00
2023-03-06T21:40:10.834Z,99794.00
2023-03-06T21:42:37.509Z,99802.00
2023-03-06T21:45:08.930Z,99796.00
2023-03-06T21:47:38.938Z,99788.00
2023-03-06T21:50:07.729Z,99788.00
2023-03-06T21:52:37.876Z,99784.00
2023-03-06T21:55:04.805Z,99791.00
2023-03-06T21:57:34.002Z,99788.00
2023-03-06T22:00:00.691Z,99782.00
2023-03-06T22:02:47.515Z,99797.00
2023-03-06T22:05:14.578Z,99787.00
2023-03-06T22:07:41.470Z,99789.00
2023-03-06T22:10:14.292Z,99776.00
2023-03-06T22:12:41.591Z,99777.00
2023-03-06T22:15:09.925Z,99772.00
2023-03-06T22:59:52.596Z,99699.00
2023-03-06T23:02:20.000Z,99696.00
2023-03-06T23:04:52.332Z,99690.00
2023-03-06T23:07:22.052Z,99686.00
2023-03-06T23:09:48.681Z,99689.00
2023-03-06T23:12:26.486Z,99687.00
2023-03-06T23:18:12.491Z,99685.00
2023-03-06T23:20:45.024Z,99679.00
2023-03-06T23:23:11.558Z,99686.00
2023-03-06T23:25:38.063Z,99689.00
2023-03-06T23:28:04.742Z,99681.00
2023-03-06T23:30:31.503Z,99676.00
2023-03-06T23:32:58.309Z,99673.00
2023-03-06T23:35:25.071Z,99676.00
2023-03-06T23:37:51.976Z,99670.00
2023-03-06T23:40:34.278Z,99669.00
2023-03-06T23:43:03.622Z,99664.00
2023-03-06T23:45:30.840Z,99667.00
2023-03-06T23:47:57.764Z,99661.00
2023-03-06T23:50:26.451Z,99651.00
2023-03-06T23:52:54.039Z,99654.00
2023-03-06T23:55:20.756Z,99651.00
2023-03-06T23:57:47.570Z,99657.00
